sensor_id;sensor_type;location;lat;lon;timestamp;pressure;altitude;pressure_sealevel;temperature;humidity
28354;BME280;15603;50.878;8.036;2023-06-04T00:02:20;145768.59;;;10.59;78.23
28354;BME280;15603;50.878;8.036;2023-06-04T00:04:48;145791.69;;;10.69;78.50
28354;BME280;15603;50.878;8.036;2023-06-04T00:07:15;145819.66;;;10.81;77.81
28354;BME280;15603;50.878;8.036;2023-06-04T00:09:42;145747.97;;;10.51;78.72
28354;BME280;15603;50.878;8.036;2023-06-04T00:12:10;145766.16;;;10.58;77.94
28354;BME280;15603;50.878;8.036;2023-06-04T00:14:37;145740.66;;;10.48;78.59
28354;BME280;15603;50.878;8.036;2023-06-04T00:17:05;145739.44;;;10.47;78.93
28354;BME280;15603;50.878;8.036;2023-06-04T00:19:32;145750.38;;;10.52;78.95
28354;BME280;15603;50.878;8.036;2023-06-04T00:22:00;145738.19;;;10.47;78.01
28354;BME280;15603;50.878;8.036;2023-06-04T00:24:27;145706.59;;;10.33;79.38
28354;BME280;15603;50.878;8.036;2023-06-04T00:26:55;145715.13;;;10.37;78.48
28354;BME280;15603;50.878;8.036;2023-06-04T00:29:22;145684.72;;;10.24;79.37
28354;BME280;15603;50.878;8.036;2023-06-04T00:31:49;145662.84;;;10.15;79.77
28354;BME280;15603;50.878;8.036;2023-06-04T00:34:17;145668.91;;;10.17;80.76
28354;BME280;15603;50.878;8.036;2023-06-04T00:36:44;145648.28;;;10.09;81.79
28354;BME280;15603;50.878;8.036;2023-06-04T00:39:12;145650.66;;;10.10;80.21
28354;BME280;15603;50.878;8.036;2023-06-04T00:41:39;145628.78;;;10.00;81.32
28354;BME280;15603;50.878;8.036;2023-06-04T00:44:06;145633.66;;;10.02;82.07
28354;BME280;15603;50.878;8.036;2023-06-04T00:46:34;145619.06;;;9.96;82.49
28354;BME280;15603;50.878;8.036;2023-06-04T00:49:04;145613.03;;;9.94;82.52
28354;BME280;15603;50.878;8.036;2023-06-04T00:51:32;145606.97;;;9.91;82.59
28354;BME280;15603;50.878;8.036;2023-06-04T00:54:02;145583.88;;;9.81;82.55
28354;BME280;15603;50.878;8.036;2023-06-04T00:56:36;145521.91;;;9.55;82.09
28354;BME280;15603;50.878;8.036;2023-06-04T00:59:05;145571.72;;;9.76;82.46
28354;BME280;15603;50.878;8.036;2023-06-04T01:04:14;145538.94;;;9.62;84.71
28354;BME280;15603;50.878;8.036;2023-06-04T01:06:44;145532.81;;;9.60;83.36
28354;BME280;15603;50.878;8.036;2023-06-04T01:09:12;145549.84;;;9.67;83.15
28354;BME280;15603;50.878;8.036;2023-06-04T01:11:40;145524.31;;;9.56;82.53
28354;BME280;15603;50.878;8.036;2023-06-04T01:14:09;145519.47;;;9.54;83.56
28354;BME280;15603;50.878;8.036;2023-06-04T01:16:50;145518.25;;;9.54;83.57
28354;BME280;15603;50.878;8.036;2023-06-04T01:25:19;145470.91;;;9.34;85.72
28354;BME280;15603;50.878;8.036;2023-06-04T01:27:52;145427.19;;;9.15;85.81
28354;BME280;15603;50.878;8.036;2023-06-04T01:30:25;145432.03;;;9.17;85.88
28354;BME280;15603;50.878;8.036;2023-06-04T01:32:54;145439.34;;;9.20;85.49
28354;BME280;15603;50.878;8.036;2023-06-04T01:35:22;145382.25;;;8.96;85.12
28354;BME280;15603;50.878;8.036;2023-06-04T01:37:52;145444.19;;;9.22;84.10
28354;BME280;15603;50.878;8.036;2023-06-04T01:40:20;145347.09;;;8.81;86.72
28354;BME280;15603;50.878;8.036;2023-06-04T01:42:47;145373.75;;;8.93;86.78
28354;BME280;15603;50.878;8.036;2023-06-04T01:45:14;145360.38;;;8.87;86.93
28354;BME280;15603;50.878;8.036;2023-06-04T01:47:41;145393.22;;;9.01;87.61
28354;BME280;15603;50.878;8.036;2023-06-04T01:50:09;145373.75;;;8.93;86.66
28354;BME280;15603;50.878;8.036;2023-06-04T01:52:36;145359.19;;;8.87;87.32
28354;BME280;15603;50.878;8.036;2023-06-04T01:55:05;145350.69;;;8.83;88.41
28354;BME280;15603;50.878;8.036;2023-06-04T01:57:33;145310.66;;;8.66;88.46
28354;BME280;15603;50.878;8.036;2023-06-04T02:00:00;145269.34;;;8.49;88.66
28354;BME280;15603;50.878;8.036;2023-06-04T02:02:27;145300.91;;;8.62;88.58
28354;BME280;15603;50.878;8.036;2023-06-04T02:04:54;145308.22;;;8.65;88.86
28354;BME280;15603;50.878;8.036;2023-06-04T02:07:22;145281.50;;;8.54;89.57
28354;BME280;15603;50.878;8.036;2023-06-04T02:09:49;145300.91;;;8.62;89.56
28354;BME280;15603;50.878;8.036;2023-06-04T02:12:17;145288.81;;;8.57;88.99
28354;BME280;15603;50.878;8.036;2023-06-04T02:14:44;145283.97;;;8.55;89.67
28354;BME280;15603;50.878;8.036;2023-06-04T02:17:14;145285.16;;;8.55;89.64
28354;BME280;15603;50.878;8.036;2023-06-04T02:19:43;145253.59;;;8.42;90.68
28354;BME280;15603;50.878;8.036;2023-06-04T02:22:17;145241.41;;;8.37;89.88
28354;BME280;15603;50.878;8.036;2023-06-04T02:24:46;145254.78;;;8.42;89.76
28354;BME280;15603;50.878;8.036;2023-06-04T02:27:14;145258.44;;;8.44;90.13
28354;BME280;15603;50.878;8.036;2023-06-04T02:29:42;145203.78;;;8.21;90.37
28354;BME280;15603;50.878;8.036;2023-06-04T02:32:09;145162.53;;;8.03;90.60
28354;BME280;15603;50.878;8.036;2023-06-04T02:34:37;145235.34;;;8.34;90.57
28354;BME280;15603;50.878;8.036;2023-06-04T02:37:04;145266.94;;;8.48;89.44
28354;BME280;15603;50.878;8.036;2023-06-04T02:39:31;145237.81;;;8.35;90.23
28354;BME280;15603;50.878;8.036;2023-06-04T02:41:58;145241.41;;;8.37;89.73
28354;BME280;15603;50.878;8.036;2023-06-04T02:44:26;145224.44;;;8.30;90.17
28354;BME280;15603;50.878;8.036;2023-06-04T02:46:53;145188.03;;;8.14;91.19
28354;BME280;15603;50.878;8.036;2023-06-04T02:49:20;145181.94;;;8.12;91.52
28354;BME280;15603;50.878;8.036;2023-06-04T02:51:48;145177.09;;;8.10;91.03
28354;BME280;15603;50.878;8.036;2023-06-04T02:54:16;145084.91;;;7.71;91.89
28354;BME280;15603;50.878;8.036;2023-06-04T02:56:43;145135.84;;;7.92;91.77
28354;BME280;15603;50.878;8.036;2023-06-04T02:59:11;145114.00;;;7.83;93.18
28354;BME280;15603;50.878;8.036;2023-06-04T03:01:40;145114.00;;;7.83;93.37
28354;BME280;15603;50.878;8.036;2023-06-04T03:04:08;145111.59;;;7.82;93.34
28354;BME280;15603;50.878;8.036;2023-06-04T03:06:37;145090.97;;;7.73;92.49
28354;BME280;15603;50.878;8.036;2023-06-04T03:09:07;145101.91;;;7.78;93.62
28354;BME280;15603;50.878;8.036;2023-06-04T03:11:34;145097.06;;;7.76;93.94
28354;BME280;15603;50.878;8.036;2023-06-04T03:14:02;145066.72;;;7.63;94.44
28354;BME280;15603;50.878;8.036;2023-06-04T03:16:29;145087.31;;;7.72;93.52
28354;BME280;15603;50.878;8.036;2023-06-04T03:18:56;145065.50;;;7.62;94.91
28354;BME280;15603;50.878;8.036;2023-06-04T03:21:23;145063.06;;;7.61;94.58
28354;BME280;15603;50.878;8.036;2023-06-04T03:23:52;145074.00;;;7.66;93.81
28354;BME280;15603;50.878;8.036;2023-06-04T03:26:19;145017.00;;;7.42;94.00
28354;BME280;15603;50.878;8.036;2023-06-04T03:28:46;145029.13;;;7.47;94.94
28354;BME280;15603;50.878;8.036;2023-06-04T03:31:17;145021.84;;;7.44;95.28
28354;BME280;15603;50.878;8.036;2023-06-04T03:33:45;145035.19;;;7.50;94.46
28354;BME280;15603;50.878;8.036;2023-06-04T03:36:12;145041.22;;;7.52;95.10
28354;BME280;15603;50.878;8.036;2023-06-04T03:38:39;145050.94;;;7.56;93.75
28354;BME280;15603;50.878;8.036;2023-06-04T03:41:08;145053.38;;;7.57;95.04
28354;BME280;15603;50.878;8.036;2023-06-04T03:43:35;145053.38;;;7.57;94.64
28354;BME280;15603;50.878;8.036;2023-06-04T03:46:05;145052.16;;;7.57;94.27
28354;BME280;15603;50.878;8.036;2023-06-04T03:48:32;145048.53;;;7.55;94.85
28354;BME280;15603;50.878;8.036;2023-06-04T03:51:00;145071.56;;;7.65;94.07
28354;BME280;15603;50.878;8.036;2023-06-04T03:53:27;145048.53;;;7.55;94.24
28354;BME280;15603;50.878;8.036;2023-06-04T03:55:55;145055.81;;;7.58;93.43
28354;BME280;15603;50.878;8.036;2023-06-04T03:58:22;145065.50;;;7.62;93.22
28354;BME280;15603;50.878;8.036;2023-06-04T04:00:51;145032.72;;;7.48;94.18
28354;BME280;15603;50.878;8.036;2023-06-04T04:03:18;145047.31;;;7.55;93.61
28354;BME280;15603;50.878;8.036;2023-06-04T04:05:47;145018.19;;;7.42;94.12
28354;BME280;15603;50.878;8.036;2023-06-04T04:08:14;145040.03;;;7.52;93.82
28354;BME280;15603;50.878;8.036;2023-06-04T04:10:44;145106.75;;;7.80;92.19
28354;BME280;15603;50.878;8.036;2023-06-04T04:13:11;145082.47;;;7.70;91.71
28354;BME280;15603;50.878;8.036;2023-06-04T04:15:40;145074.00;;;7.66;92.08
28354;BME280;15603;50.878;8.036;2023-06-04T04:18:08;145070.38;;;7.64;93.23
28354;BME280;15603;50.878;8.036;2023-06-04T04:20:36;145086.13;;;7.71;92.93
28354;BME280;15603;50.878;8.036;2023-06-04T04:23:06;145110.41;;;7.81;91.69
28354;BME280;15603;50.878;8.036;2023-06-04T04:25:36;145183.19;;;8.12;89.62
28354;BME280;15603;50.878;8.036;2023-06-04T04:28:05;145194.09;;;8.17;89.75
28354;BME280;15603;50.878;8.036;2023-06-04T04:30:37;145191.66;;;8.16;88.78
28354;BME280;15603;50.878;8.036;2023-06-04T04:33:06;145177.09;;;8.10;90.87
28354;BME280;15603;50.878;8.036;2023-06-04T04:35:38;145249.91;;;8.40;89.60
28354;BME280;15603;50.878;8.036;2023-06-04T04:38:06;145274.25;;;8.51;88.02
28354;BME280;15603;50.878;8.036;2023-06-04T04:40:41;145274.25;;;8.51;89.49
28354;BME280;15603;50.878;8.036;2023-06-04T04:43:10;145257.25;;;8.43;89.53
28354;BME280;15603;50.878;8.036;2023-06-04T04:45:38;145310.66;;;8.66;88.69
28354;BME280;15603;50.878;8.036;2023-06-04T04:48:07;145305.78;;;8.64;87.86
28354;BME280;15603;50.878;8.036;2023-06-04T04:50:34;145357.97;;;8.86;87.69
28354;BME280;15603;50.878;8.036;2023-06-04T04:53:03;145296.06;;;8.60;85.84
28354;BME280;15603;50.878;8.036;2023-06-04T04:55:31;145393.22;;;9.01;86.95
28354;BME280;15603;50.878;8.036;2023-06-04T04:57:58;145421.13;;;9.13;85.88
28354;BME280;15603;50.878;8.036;2023-06-04T05:00:25;145441.75;;;9.21;86.24
28354;BME280;15603;50.878;8.036;2023-06-04T05:02:54;145458.75;;;9.29;84.53
28354;BME280;15603;50.878;8.036;2023-06-04T05:05:22;145450.25;;;9.25;85.49
28354;BME280;15603;50.878;8.036;2023-06-04T05:07:50;145503.69;;;9.48;85.91
28354;BME280;15603;50.878;8.036;2023-06-04T05:10:20;145518.25;;;9.54;85.24
28354;BME280;15603;50.878;8.036;2023-06-04T05:12:55;145553.50;;;9.69;84.37
28354;BME280;15603;50.878;8.036;2023-06-04T05:15:27;145581.44;;;9.80;83.72
28354;BME280;15603;50.878;8.036;2023-06-04T05:17:56;145645.81;;;10.08;82.55
28354;BME280;15603;50.878;8.036;2023-06-04T05:20:27;145682.25;;;10.23;82.51
28354;BME280;15603;50.878;8.036;2023-06-04T05:22:55;145687.13;;;10.25;81.50
28354;BME280;15603;50.878;8.036;2023-06-04T05:25:23;145716.38;;;10.37;81.21
28354;BME280;15603;50.878;8.036;2023-06-04T05:27:51;145735.78;;;10.46;81.10
28354;BME280;15603;50.878;8.036;2023-06-04T05:30:19;145781.97;;;10.65;80.91
28354;BME280;15603;50.878;8.036;2023-06-04T05:32:47;145795.34;;;10.71;81.74
28354;BME280;15603;50.878;8.036;2023-06-04T05:35:16;145831.81;;;10.86;80.38
28354;BME280;15603;50.878;8.036;2023-06-04T05:37:44;145864.63;;;11.00;80.66
28354;BME280;15603;50.878;8.036;2023-06-04T05:40:15;145884.06;;;11.08;79.17
28354;BME280;15603;50.878;8.036;2023-06-04T05:42:42;145925.41;;;11.26;79.04
28354;BME280;15603;50.878;8.036;2023-06-04T05:45:10;145862.22;;;10.99;79.24
28354;BME280;15603;50.878;8.036;2023-06-04T05:47:39;145966.75;;;11.43;81.14
28354;BME280;15603;50.878;8.036;2023-06-04T05:50:07;145989.91;;;11.53;78.90
28354;BME280;15603;50.878;8.036;2023-06-04T05:52:35;146022.75;;;11.67;80.35
28354;BME280;15603;50.878;8.036;2023-06-04T05:55:06;146110.38;;;12.04;77.28
28354;BME280;15603;50.878;8.036;2023-06-04T05:57:37;146142.00;;;12.17;75.03
28354;BME280;15603;50.878;8.036;2023-06-04T06:00:04;146166.31;;;12.27;79.22
28354;BME280;15603;50.878;8.036;2023-06-04T06:02:42;146241.81;;;12.59;76.66
28354;BME280;15603;50.878;8.036;2023-06-04T06:05:24;146273.44;;;12.72;72.81
28354;BME280;15603;50.878;8.036;2023-06-04T06:07:51;146263.72;;;12.68;76.83
28354;BME280;15603;50.878;8.036;2023-06-04T06:10:18;146303.84;;;12.85;75.34
28354;BME280;15603;50.878;8.036;2023-06-04T06:12:45;146389.09;;;13.21;73.56
28354;BME280;15603;50.878;8.036;2023-06-04T06:15:12;146452.47;;;13.48;75.59
28354;BME280;15603;50.878;8.036;2023-06-04T06:17:41;146479.28;;;13.59;71.84
28354;BME280;15603;50.878;8.036;2023-06-04T06:20:09;146492.66;;;13.65;66.51
28354;BME280;15603;50.878;8.036;2023-06-04T06:22:37;146521.88;;;13.77;64.76
28354;BME280;15603;50.878;8.036;2023-06-04T06:25:06;146594.97;;;14.08;62.84
28354;BME280;15603;50.878;8.036;2023-06-04T06:27:39;146508.47;;;13.71;61.09
28354;BME280;15603;50.878;8.036;2023-06-04T06:30:08;146624.19;;;14.20;62.57
28354;BME280;15603;50.878;8.036;2023-06-04T06:32:36;146665.66;;;14.38;60.83
28354;BME280;15603;50.878;8.036;2023-06-04T06:35:03;146704.66;;;14.54;59.61
28354;BME280;15603;50.878;8.036;2023-06-04T06:37:30;146743.72;;;14.70;59.41
28354;BME280;15603;50.878;8.036;2023-06-04T06:39:57;146804.66;;;14.96;59.11
28354;BME280;15603;50.878;8.036;2023-06-04T06:42:24;146836.34;;;15.09;58.85
28354;BME280;15603;50.878;8.036;2023-06-04T06:44:53;146877.78;;;15.27;59.79
28354;BME280;15603;50.878;8.036;2023-06-04T06:47:21;146911.91;;;15.41;58.26
28354;BME280;15603;50.878;8.036;2023-06-04T06:49:48;146968.06;;;15.65;56.87
28354;BME280;15603;50.878;8.036;2023-06-04T06:52:15;147021.72;;;15.87;58.62
28354;BME280;15603;50.878;8.036;2023-06-04T06:54:46;147057.13;;;16.02;55.91
28354;BME280;15603;50.878;8.036;2023-06-04T06:57:13;147083.97;;;16.14;54.03
28354;BME280;15603;50.878;8.036;2023-06-04T06:59:40;147092.50;;;16.17;52.40
28354;BME280;15603;50.878;8.036;2023-06-04T07:02:07;147092.50;;;16.17;52.50
28354;BME280;15603;50.878;8.036;2023-06-04T07:04:35;147129.09;;;16.33;52.95
28354;BME280;15603;50.878;8.036;2023-06-04T07:07:02;147146.19;;;16.40;51.36
28354;BME280;15603;50.878;8.036;2023-06-04T07:09:30;147158.38;;;16.45;50.88
28354;BME280;15603;50.878;8.036;2023-06-04T07:11:57;147193.78;;;16.60;50.22
28354;BME280;15603;50.878;8.036;2023-06-04T07:14:24;147236.47;;;16.78;48.89
28354;BME280;15603;50.878;8.036;2023-06-04T07:16:51;147290.22;;;17.00;48.52
28354;BME280;15603;50.878;8.036;2023-06-04T07:19:18;147313.44;;;17.10;47.33
28354;BME280;15603;50.878;8.036;2023-06-04T07:21:45;147370.81;;;17.34;46.33
28354;BME280;15603;50.878;8.036;2023-06-04T07:24:12;147296.31;;;17.03;48.21
28354;BME280;15603;50.878;8.036;2023-06-04T07:26:39;147392.75;;;17.43;45.77
28354;BME280;15603;50.878;8.036;2023-06-04T07:29:06;147448.97;;;17.67;46.24
28354;BME280;15603;50.878;8.036;2023-06-04T07:31:34;147478.25;;;17.79;46.26
28354;BME280;15603;50.878;8.036;2023-06-04T07:34:01;147499.09;;;17.88;43.09
28354;BME280;15603;50.878;8.036;2023-06-04T07:36:28;147496.63;;;17.87;40.72
28354;BME280;15603;50.878;8.036;2023-06-04T07:38:55;147477.06;;;17.79;39.22
28354;BME280;15603;50.878;8.036;2023-06-04T07:41:23;147480.72;;;17.80;39.54
28354;BME280;15603;50.878;8.036;2023-06-04T07:43:50;147508.84;;;17.92;39.74
28354;BME280;15603;50.878;8.036;2023-06-04T07:46:17;147585.81;;;18.24;40.42
28354;BME280;15603;50.878;8.036;2023-06-04T07:48:45;147568.69;;;18.17;36.85
28354;BME280;15603;50.878;8.036;2023-06-04T07:51:13;147491.75;;;17.85;37.50
28354;BME280;15603;50.878;8.036;2023-06-04T07:53:41;147513.75;;;17.94;36.88
28354;BME280;15603;50.878;8.036;2023-06-04T07:56:09;147539.34;;;18.05;36.80
28354;BME280;15603;50.878;8.036;2023-06-04T07:58:36;147552.78;;;18.11;38.18
28354;BME280;15603;50.878;8.036;2023-06-04T08:01:03;147574.78;;;18.20;37.37
28354;BME280;15603;50.878;8.036;2023-06-04T08:03:30;147599.22;;;18.30;36.80
28354;BME280;15603;50.878;8.036;2023-06-04T08:05:58;147598.00;;;18.30;39.03
28354;BME280;15603;50.878;8.036;2023-06-04T08:08:28;147629.75;;;18.43;39.59
28354;BME280;15603;50.878;8.036;2023-06-04T08:10:55;147642.00;;;18.48;37.88
28354;BME280;15603;50.878;8.036;2023-06-04T08:13:22;147656.66;;;18.54;37.64
28354;BME280;15603;50.878;8.036;2023-06-04T08:15:49;147639.53;;;18.47;37.32
28354;BME280;15603;50.878;8.036;2023-06-04T08:18:16;147710.44;;;18.77;37.23
28354;BME280;15603;50.878;8.036;2023-06-04T08:20:43;147727.53;;;18.84;37.36
28354;BME280;15603;50.878;8.036;2023-06-04T08:23:10;147775.25;;;19.04;36.91
28354;BME280;15603;50.878;8.036;2023-06-04T08:25:38;147753.22;;;18.95;35.16
28354;BME280;15603;50.878;8.036;2023-06-04T08:28:05;147800.88;;;19.15;35.39
28354;BME280;15603;50.878;8.036;2023-06-04T08:30:32;147809.44;;;19.18;35.93
28354;BME280;15603;50.878;8.036;2023-06-04T08:33:02;147732.47;;;18.86;35.35
28354;BME280;15603;50.878;8.036;2023-06-04T08:35:30;147796.00;;;19.13;36.25
28354;BME280;15603;50.878;8.036;2023-06-04T08:37:57;147771.56;;;19.02;37.34
28354;BME280;15603;50.878;8.036;2023-06-04T08:40:25;147805.81;;;19.17;35.42
28354;BME280;15603;50.878;8.036;2023-06-04T08:42:55;147803.34;;;19.16;35.84
28354;BME280;15603;50.878;8.036;2023-06-04T08:45:25;147794.78;;;19.12;34.90
28354;BME280;15603;50.878;8.036;2023-06-04T08:47:56;147813.13;;;19.20;35.52
28354;BME280;15603;50.878;8.036;2023-06-04T08:50:24;147827.78;;;19.26;36.28
28354;BME280;15603;50.878;8.036;2023-06-04T08:52:53;147904.81;;;19.58;35.55
28354;BME280;15603;50.878;8.036;2023-06-04T08:55:22;147930.50;;;19.69;34.54
28354;BME280;15603;50.878;8.036;2023-06-04T08:57:49;147914.56;;;19.62;33.60
28354;BME280;15603;50.878;8.036;2023-06-04T09:00:18;147886.47;;;19.51;33.46
28354;BME280;15603;50.878;8.036;2023-06-04T09:02:47;147728.81;;;18.85;34.54
28354;BME280;15603;50.878;8.036;2023-06-04T09:05:22;147930.50;;;19.69;34.37
28354;BME280;15603;50.878;8.036;2023-06-04T09:07:53;147913.38;;;19.62;33.36
28354;BME280;15603;50.878;8.036;2023-06-04T09:10:24;147912.16;;;19.61;33.46
28354;BME280;15603;50.878;8.036;2023-06-04T09:12:52;147892.56;;;19.53;33.47
28354;BME280;15603;50.878;8.036;2023-06-04T09:15:20;147902.38;;;19.57;32.88
28354;BME280;15603;50.878;8.036;2023-06-04T09:17:47;147859.56;;;19.39;32.67
28354;BME280;15603;50.878;8.036;2023-06-04T09:20:19;147832.66;;;19.28;33.30
28354;BME280;15603;50.878;8.036;2023-06-04T09:22:46;147932.91;;;19.70;32.94
28354;BME280;15603;50.878;8.036;2023-06-04T09:25:24;147977.00;;;19.89;32.92
28354;BME280;15603;50.878;8.036;2023-06-04T09:27:54;148024.69;;;20.09;33.29
28354;BME280;15603;50.878;8.036;2023-06-04T09:30:24;148005.13;;;20.00;32.00
28354;BME280;15603;50.878;8.036;2023-06-04T09:32:52;147996.56;;;19.97;32.88
28354;BME280;15603;50.878;8.036;2023-06-04T09:35:20;148027.13;;;20.10;32.81
28354;BME280;15603;50.878;8.036;2023-06-04T09:37:57;148045.50;;;20.17;33.20
28354;BME280;15603;50.878;8.036;2023-06-04T09:40:37;147962.34;;;19.83;32.83
28354;BME280;15603;50.878;8.036;2023-06-04T09:43:04;148121.31;;;20.49;33.44
28354;BME280;15603;50.878;8.036;2023-06-04T09:45:34;148150.72;;;20.62;33.77
28354;BME280;15603;50.878;8.036;2023-06-04T09:48:04;148144.53;;;20.59;35.08
28354;BME280;15603;50.878;8.036;2023-06-04T09:50:35;148242.50;;;21.00;33.17
28354;BME280;15603;50.878;8.036;2023-06-04T09:53:15;148189.84;;;20.78;32.91
28354;BME280;15603;50.878;8.036;2023-06-04T09:55:43;148202.09;;;20.83;33.37
28354;BME280;15603;50.878;8.036;2023-06-04T09:58:11;148229.03;;;20.94;32.91
28354;BME280;15603;50.878;8.036;2023-06-04T10:00:40;148226.56;;;20.93;32.20
28354;BME280;15603;50.878;8.036;2023-06-04T10:03:10;148246.19;;;21.02;33.08
28354;BME280;15603;50.878;8.036;2023-06-04T10:05:40;148242.50;;;21.00;34.61
28354;BME280;15603;50.878;8.036;2023-06-04T10:08:09;148268.16;;;21.11;32.87
28354;BME280;15603;50.878;8.036;2023-06-04T10:10:38;148202.09;;;20.83;31.20
28354;BME280;15603;50.878;8.036;2023-06-04T10:13:09;148214.34;;;20.88;32.07
28354;BME280;15603;50.878;8.036;2023-06-04T10:15:42;148194.75;;;20.80;31.59
28354;BME280;15603;50.878;8.036;2023-06-04T10:18:10;148213.09;;;20.88;32.70
28354;BME280;15603;50.878;8.036;2023-06-04T10:20:38;148158.03;;;20.65;32.59
28354;BME280;15603;50.878;8.036;2023-06-04T10:23:06;148159.31;;;20.65;31.58
28354;BME280;15603;50.878;8.036;2023-06-04T10:25:35;148189.84;;;20.78;33.21
28354;BME280;15603;50.878;8.036;2023-06-04T10:28:03;148167.81;;;20.69;33.75
28354;BME280;15603;50.878;8.036;2023-06-04T10:30:30;148246.19;;;21.02;32.81
28354;BME280;15603;50.878;8.036;2023-06-04T10:32:58;148238.81;;;20.98;34.12
28354;BME280;15603;50.878;8.036;2023-06-04T10:35:33;148224.13;;;20.92;32.30
28354;BME280;15603;50.878;8.036;2023-06-04T10:38:12;148199.63;;;20.82;31.47
28354;BME280;15603;50.878;8.036;2023-06-04T10:40:40;148166.63;;;20.68;31.31
28354;BME280;15603;50.878;8.036;2023-06-04T10:43:09;148155.63;;;20.64;31.79
28354;BME280;15603;50.878;8.036;2023-06-04T10:45:37;148160.50;;;20.66;31.86
28354;BME280;15603;50.878;8.036;2023-06-04T10:48:07;148219.25;;;20.90;33.33
28354;BME280;15603;50.878;8.036;2023-06-04T10:50:48;148252.28;;;21.04;30.94
28354;BME280;15603;50.878;8.036;2023-06-04T10:53:17;148268.16;;;21.11;30.93
28354;BME280;15603;50.878;8.036;2023-06-04T10:55:45;148211.88;;;20.87;29.84
28354;BME280;15603;50.878;8.036;2023-06-04T10:58:13;148255.97;;;21.06;31.83
28354;BME280;15603;50.878;8.036;2023-06-04T11:00:44;148307.34;;;21.27;29.78
28354;BME280;15603;50.878;8.036;2023-06-04T11:03:17;148160.50;;;20.66;31.48
28354;BME280;15603;50.878;8.036;2023-06-04T11:05:46;148374.69;;;21.55;33.88
28354;BME280;15603;50.878;8.036;2023-06-04T11:08:14;148419.97;;;21.74;35.74
28354;BME280;15603;50.878;8.036;2023-06-04T11:10:43;148482.44;;;22.01;32.77
28354;BME280;15603;50.878;8.036;2023-06-04T11:13:11;148475.06;;;21.98;33.49
28354;BME280;15603;50.878;8.036;2023-06-04T11:15:45;148478.75;;;21.99;33.41
28354;BME280;15603;50.878;8.036;2023-06-04T11:18:20;148477.53;;;21.99;31.53
28354;BME280;15603;50.878;8.036;2023-06-04T11:20:49;148528.94;;;22.20;31.92
28354;BME280;15603;50.878;8.036;2023-06-04T11:23:16;148565.72;;;22.35;32.68
28354;BME280;15603;50.878;8.036;2023-06-04T11:25:44;148544.94;;;22.27;31.04
28354;BME280;15603;50.878;8.036;2023-06-04T11:28:16;148608.59;;;22.53;30.99
28354;BME280;15603;50.878;8.036;2023-06-04T11:33:25;148515.47;;;22.14;29.08
28354;BME280;15603;50.878;8.036;2023-06-04T11:35:52;148527.75;;;22.20;32.66
28354;BME280;15603;50.878;8.036;2023-06-04T11:38:19;148522.84;;;22.18;30.00
28354;BME280;15603;50.878;8.036;2023-06-04T11:40:58;148524.06;;;22.18;31.91
28354;BME280;15603;50.878;8.036;2023-06-04T11:43:27;148524.06;;;22.18;29.21
28354;BME280;15603;50.878;8.036;2023-06-04T11:45:54;148597.56;;;22.49;34.32
28354;BME280;15603;50.878;8.036;2023-06-04T11:48:22;148552.25;;;22.30;29.68
28354;BME280;15603;50.878;8.036;2023-06-04T11:50:50;148549.84;;;22.29;27.63
28354;BME280;15603;50.878;8.036;2023-06-04T11:53:17;148522.84;;;22.18;32.49
28354;BME280;15603;50.878;8.036;2023-06-04T11:55:44;148522.84;;;22.18;27.77
28354;BME280;15603;50.878;8.036;2023-06-04T11:58:12;148526.53;;;22.19;29.09
28354;BME280;15603;50.878;8.036;2023-06-04T12:00:40;148527.75;;;22.20;28.88
28354;BME280;15603;50.878;8.036;2023-06-04T12:03:07;148522.84;;;22.18;32.68
28354;BME280;15603;50.878;8.036;2023-06-04T12:05:34;148508.16;;;22.11;30.60
28354;BME280;15603;50.878;8.036;2023-06-04T12:08:09;148559.63;;;22.33;30.52
28354;BME280;15603;50.878;8.036;2023-06-04T12:10:38;148635.53;;;22.65;33.25
28354;BME280;15603;50.878;8.036;2023-06-04T12:13:06;148640.44;;;22.67;30.89
28354;BME280;15603;50.878;8.036;2023-06-04T12:15:34;148638.00;;;22.66;32.85
28354;BME280;15603;50.878;8.036;2023-06-04T12:18:01;148600.03;;;22.50;31.70
28354;BME280;15603;50.878;8.036;2023-06-04T12:20:35;148602.47;;;22.51;29.42
28354;BME280;15603;50.878;8.036;2023-06-04T12:23:04;148701.72;;;22.92;34.18
28354;BME280;15603;50.878;8.036;2023-06-04T12:25:32;148623.31;;;22.60;34.72
28354;BME280;15603;50.878;8.036;2023-06-04T12:27:59;148578.00;;;22.41;30.76
28354;BME280;15603;50.878;8.036;2023-06-04T12:30:39;148684.53;;;22.85;30.07
28354;BME280;15603;50.878;8.036;2023-06-04T12:33:06;148562.06;;;22.34;28.72
28354;BME280;15603;50.878;8.036;2023-06-04T12:35:34;148645.31;;;22.69;30.53
28354;BME280;15603;50.878;8.036;2023-06-04T12:38:05;148657.59;;;22.74;29.54
28354;BME280;15603;50.878;8.036;2023-06-04T12:40:32;148696.81;;;22.90;29.77
28354;BME280;15603;50.878;8.036;2023-06-04T12:42:59;148609.84;;;22.54;28.37
28354;BME280;15603;50.878;8.036;2023-06-04T12:45:27;148650.22;;;22.71;29.25
28354;BME280;15603;50.878;8.036;2023-06-04T12:47:54;148667.38;;;22.78;28.90
28354;BME280;15603;50.878;8.036;2023-06-04T12:50:21;148704.13;;;22.93;29.12
28354;BME280;15603;50.878;8.036;2023-06-04T12:52:49;148743.41;;;23.10;29.55
28354;BME280;15603;50.878;8.036;2023-06-04T12:55:16;148723.72;;;23.02;28.55
28354;BME280;15603;50.878;8.036;2023-06-04T12:57:44;148673.53;;;22.81;29.17
28354;BME280;15603;50.878;8.036;2023-06-04T13:00:12;148734.81;;;23.06;31.55
28354;BME280;15603;50.878;8.036;2023-06-04T13:02:39;148793.63;;;23.31;28.91
28354;BME280;15603;50.878;8.036;2023-06-04T13:05:06;148758.09;;;23.16;27.80
28354;BME280;15603;50.878;8.036;2023-06-04T13:07:34;148748.28;;;23.12;29.43
28354;BME280;15603;50.878;8.036;2023-06-04T13:10:01;148814.44;;;23.40;28.76
28354;BME280;15603;50.878;8.036;2023-06-04T13:12:28;148895.34;;;23.74;34.70